Liberty, Kansas
Current Conditions -  °F | °C
As of 3:52 PM on Monday 20 Oct 2014 (Local Time) from KCFV Reporting Station
Clear Clear  
Wind Chill: 78°   Ceiling: Unl
Heat Index: 79°   Visibility: 10mi
Dew Point: 56°   Wind: 3mph
Humidity: 46%   Direction: NA
Pressure: 30.01"   Gusts: NA
Location:  37.16°N, 95.59°W
Report Text: KCFV 202052Z AUTO VRB03KT 10SM CLR 26/13 A3001 RMK AO2 SLP159 T02560133 56012
Loading
Personal Weather Stations






























Interactive Weather Map New forecast layout! Learn more

10-Day Weather Forecast

Advertisements
Track Severe Weather on mobile